Time;durP1;ratioP1;P1;durP2;ratioP2;P2;SDS_P1;SDS_P2;PMS_P1;PMS_P2;Temp;Humidity;BMP_temperature;BMP_pressure;BME280_temperature;BME280_humidity;BME280_pressure;Samples;Min_cycle;Max_cycle;Signal;HPM_P1;HPM_P2
2022/03/15 00:00:10;;;;;;;17.45;6.97;;;;;;;4.78;59.40;94861.56;5031079;28;20047;-53
2022/03/15 00:02:37;;;;;;;12.93;5.55;;;;;;;4.57;59.66;94848.31;5031880;28;20413;-62
2022/03/15 00:05:04;;;;;;;14.87;6.40;;;;;;;4.61;59.84;94848.38;5031926;28;20060;-57
2022/03/15 00:07:31;;;;;;;14.68;5.50;;;;;;;4.59;59.72;94848.75;5040238;28;20039;-60
2022/03/15 00:09:59;;;;;;;11.82;5.53;;;;;;;4.55;60.13;94839.72;5051528;28;20049;-53
2022/03/15 00:12:28;;;;;;;9.15;4.80;;;;;;;4.58;60.26;94849.09;5051149;28;20045;-60
2022/03/15 00:14:55;;;;;;;8.57;3.83;;;;;;;4.57;60.49;94842.88;5051727;28;20041;-48
2022/03/15 00:17:23;;;;;;;9.60;4.43;;;;;;;4.52;60.25;94839.63;5051055;28;20070;-51
2022/03/15 00:19:50;;;;;;;9.43;4.60;;;;;;;4.50;60.20;94831.81;5051553;28;20048;-48
2022/03/15 00:22:17;;;;;;;9.85;4.43;;;;;;;4.62;60.11;94832.88;5050902;28;20052;-55
2022/03/15 00:24:44;;;;;;;9.85;4.32;;;;;;;4.65;60.10;94832.13;5051447;28;20053;-54
2022/03/15 00:27:10;;;;;;;8.90;4.55;;;;;;;4.75;59.79;94824.22;5050986;28;20051;-53
2022/03/15 00:29:38;;;;;;;9.97;4.70;;;;;;;4.79;59.91;94824.31;5051010;28;20043;-58
2022/03/15 00:32:07;;;;;;;10.50;4.90;;;;;;;4.76;59.91;94811.41;5051235;28;20067;-58
2022/03/15 00:34:34;;;;;;;17.15;6.50;;;;;;;4.69;60.74;94809.34;5030546;28;20889;-54
2022/03/15 00:37:00;;;;;;;11.32;4.70;;;;;;;4.36;61.87;94805.09;5031363;28;20045;-52
2022/03/15 00:39:27;;;;;;;10.02;5.13;;;;;;;4.44;60.70;94805.28;5030646;28;20115;-51
2022/03/15 00:41:55;;;;;;;11.67;5.43;;;;;;;4.64;60.62;94800.66;5045983;28;20485;-53
2022/03/15 00:44:22;;;;;;;12.60;4.80;;;;;;;4.39;61.78;94804.41;5050293;28;20057;-61
2022/03/15 00:46:49;;;;;;;8.80;4.60;;;;;;;4.59;60.89;94793.59;5050950;28;20045;-52
2022/03/15 00:49:16;;;;;;;8.93;4.15;;;;;;;4.68;60.28;94794.16;5047289;28;20049;-54
2022/03/15 00:51:43;;;;;;;10.38;4.82;;;;;;;4.65;60.81;94788.63;5037050;28;20078;-48
2022/03/15 00:54:10;;;;;;;8.83;4.20;;;;;;;4.59;61.04;94790.88;5050568;28;20048;-47
2022/03/15 00:56:36;;;;;;;10.25;4.28;;;;;;;4.72;60.20;94792.28;5049420;28;20404;-53
2022/03/15 00:59:03;;;;;;;11.32;4.70;;;;;;;4.72;60.32;94796.97;5049764;28;20106;-56
2022/03/15 01:01:30;;;;;;;10.55;4.53;;;;;;;4.81;60.54;94792.09;5049031;28;20037;-56
2022/03/15 01:03:57;;;;;;;9.23;4.55;;;;;;;4.83;60.42;94789.81;5050526;28;20045;-53
2022/03/15 01:06:24;;;;;;;9.90;4.97;;;;;;;4.83;60.05;94778.13;5050100;28;20055;-47
2022/03/15 01:08:51;;;;;;;8.90;5.18;;;;;;;4.87;60.17;94785.25;5050389;28;20070;-50
2022/03/15 01:11:17;;;;;;;11.70;5.38;;;;;;;4.71;60.68;94792.66;5049940;28;20063;-52
2022/03/15 01:13:44;;;;;;;12.60;5.18;;;;;;;4.61;61.39;94780.44;5050294;28;20427;-59
2022/03/15 01:16:11;;;;;;;10.45;4.95;;;;;;;4.68;60.94;94780.56;5062049;28;20044;-57
2022/03/15 01:18:38;;;;;;;10.90;4.40;;;;;;;4.55;61.09;94793.50;5050370;28;20045;-59
2022/03/15 01:21:05;;;;;;;9.35;4.63;;;;;;;4.64;61.34;94781.63;5050470;28;20037;-48
2022/03/15 01:23:32;;;;;;;9.90;5.10;;;;;;;4.64;61.17;94787.06;5049777;28;20037;-52
2022/03/15 01:26:00;;;;;;;12.02;4.85;;;;;;;4.61;60.70;94783.16;5050276;28;20093;-49
2022/03/15 01:28:29;;;;;;;12.23;5.72;;;;;;;4.59;60.93;94788.16;5049515;28;20132;-59
2022/03/15 01:30:55;;;;;;;36.03;11.27;;;;;;;4.43;62.04;94785.47;5050168;28;20123;-52
2022/03/15 01:33:23;;;;;;;28.73;9.63;;;;;;;4.37;62.67;94790.38;5049765;28;20045;-48
2022/03/15 01:35:49;;;;;;;24.75;8.88;;;;;;;4.09;63.68;94787.81;5050228;28;20037;-61
2022/03/15 01:38:16;;;;;;;24.73;8.25;;;;;;;4.24;63.21;94786.19;5048300;28;20044;-51
2022/03/15 01:40:43;;;;;;;28.05;9.38;;;;;;;4.29;63.29;94785.16;5049984;28;20052;-48
2022/03/15 01:43:10;;;;;;;36.57;12.73;;;;;;;4.09;63.55;94784.31;5048196;28;20555;-56
2022/03/15 01:45:40;;;;;;;37.10;12.93;;;;;;;3.82;64.63;94789.47;5049943;28;20072;-55
2022/03/15 01:48:09;;;;;;;16.77;7.88;;;;;;;3.77;65.37;94784.31;5049713;28;20061;-54
2022/03/15 01:50:37;;;;;;;13.43;6.28;;;;;;;3.92;64.40;94786.22;5041486;28;20877;-54
2022/03/15 01:53:04;;;;;;;14.95;5.85;;;;;;;3.59;66.01;94781.94;5039830;28;20060;-53
2022/03/15 01:55:31;;;;;;;12.03;5.63;;;;;;;3.56;66.54;94793.53;5029249;28;20038;-54
2022/03/15 01:57:58;;;;;;;14.43;5.97;;;;;;;3.57;66.79;94797.00;5028540;28;20410;-54
2022/03/15 02:00:25;;;;;;;11.00;5.80;;;;;;;3.36;67.56;94794.53;5027815;28;20052;-59
2022/03/15 02:02:53;;;;;;;15.82;5.93;;;;;;;3.34;67.31;94800.31;5029796;28;20401;-61
2022/03/15 02:05:20;;;;;;;13.85;6.50;;;;;;;3.35;67.63;94801.88;5029212;28;20049;-58
2022/03/15 02:07:47;;;;;;;12.47;5.87;;;;;;;3.46;67.08;94796.75;5040584;28;20037;-51
2022/03/15 02:10:14;;;;;;;12.73;6.40;;;;;;;3.52;67.32;94800.78;5047931;28;20044;-52
2022/03/15 02:12:41;;;;;;;13.63;6.30;;;;;;;3.52;67.49;94810.81;5049416;28;20041;-57
2022/03/15 02:15:08;;;;;;;15.98;6.50;;;;;;;3.54;67.68;94813.97;5049492;28;20041;-55
2022/03/15 02:17:36;;;;;;;15.52;6.20;;;;;;;3.46;67.39;94818.47;5048292;28;20508;-59
2022/03/15 02:20:10;;;;;;;14.27;5.90;;;;;;;3.48;67.99;94810.75;5049498;28;20039;-57
2022/03/15 02:22:36;;;;;;;25.40;12.57;;;;;;;3.54;67.79;94809.38;5027287;28;20631;-51
2022/03/15 02:25:03;;;;;;;17.95;8.80;;;;;;;3.57;67.53;94816.78;5043942;28;20049;-61
2022/03/15 02:27:30;;;;;;;15.95;6.10;;;;;;;3.56;67.40;94806.28;5047408;28;20040;-55
2022/03/15 02:29:57;;;;;;;11.48;5.70;;;;;;;3.50;68.16;94811.19;5049074;28;20063;-58
2022/03/15 02:32:24;;;;;;;12.53;5.63;;;;;;;3.46;68.16;94801.38;5048669;28;20090;-56
2022/03/15 02:34:50;;;;;;;11.05;5.50;;;;;;;3.36;68.43;94808.09;5049169;28;20051;-48
2022/03/15 02:37:17;;;;;;;13.15;5.97;;;;;;;3.27;68.40;94812.91;5047479;28;20057;-57
2022/03/15 02:39:44;;;;;;;10.35;5.00;;;;;;;3.30;68.87;94812.19;5049113;28;20033;-59
2022/03/15 02:42:10;;;;;;;12.02;5.88;;;;;;;3.29;68.43;94811.41;5048740;28;20051;-53
2022/03/15 02:44:37;;;;;;;10.77;5.63;;;;;;;3.22;69.28;94805.00;5047685;28;20511;-56
2022/03/15 02:47:04;;;;;;;10.50;5.60;;;;;;;3.22;69.28;94800.38;5049105;28;20037;-49
2022/03/15 02:49:31;;;;;;;11.50;5.75;;;;;;;3.13;69.61;94797.81;5044649;28;20482;-52
2022/03/15 02:51:58;;;;;;;11.00;5.70;;;;;;;3.20;69.74;94799.94;5037164;28;20048;-58
2022/03/15 02:54:24;;;;;;;10.35;5.60;;;;;;;3.21;69.54;94801.50;5028456;28;20052;-54
2022/03/15 02:56:51;;;;;;;13.77;5.20;;;;;;;3.27;69.70;94807.47;5028965;28;20033;-52
2022/03/15 02:59:19;;;;;;;10.32;5.25;;;;;;;3.22;69.35;94805.00;5028218;28;20405;-48
2022/03/15 03:01:48;;;;;;;12.25;5.35;;;;;;;3.15;69.66;94797.47;5029097;28;20042;-48
2022/03/15 03:04:19;;;;;;;10.77;5.00;;;;;;;3.29;69.03;94807.91;5028466;28;20050;-55
2022/03/15 03:06:46;;;;;;;12.90;5.72;;;;;;;3.27;69.33;94802.03;5031352;28;20037;-60
2022/03/15 03:09:16;;;;;;;12.37;5.73;;;;;;;3.24;69.78;94808.97;5048256;28;20520;-58
2022/03/15 03:11:43;;;;;;;15.45;5.45;;;;;;;3.34;69.44;94805.75;5048729;28;20512;-57
2022/03/15 03:14:12;;;;;;;12.07;5.68;;;;;;;3.39;69.10;94801.97;5030422;28;20047;-51
2022/03/15 03:16:40;;;;;;;10.57;5.20;;;;;;;3.36;69.52;94808.91;5048847;28;20041;-51
2022/03/15 03:19:08;;;;;;;11.60;5.53;;;;;;;3.40;69.17;94801.63;5048860;28;20075;-51
2022/03/15 03:21:36;;;;;;;13.20;5.80;;;;;;;3.38;69.72;94805.81;5049151;28;20433;-50
2022/03/15 03:24:07;;;;;;;10.77;5.93;;;;;;;3.28;69.95;94800.91;5052733;28;20043;-55
2022/03/15 03:26:37;;;;;;;12.68;5.50;;;;;;;3.26;70.21;94797.75;5050371;28;21233;-49
2022/03/15 03:29:11;;;;;;;12.57;5.72;;;;;;;3.28;70.26;94793.56;5052404;28;20066;-53
2022/03/15 03:31:40;;;;;;;10.93;5.45;;;;;;;3.34;70.18;94796.78;5031515;28;20314;-50
2022/03/15 03:34:07;;;;;;;12.50;5.30;;;;;;;3.23;69.58;94793.81;5048988;28;20053;-50
2022/03/15 03:36:36;;;;;;;10.27;5.20;;;;;;;2.71;71.32;94795.47;5051526;28;20774;-50
2022/03/15 03:39:22;;;;;;;11.18;5.25;;;;;;;2.67;72.22;94793.81;5051979;28;20055;-51
2022/03/15 03:41:49;;;;;;;13.48;5.20;;;;;;;2.94;71.47;94794.97;5052249;28;20045;-48
2022/03/15 03:44:16;;;;;;;11.63;5.32;;;;;;;3.15;71.03;94797.47;5051562;28;20048;-53
2022/03/15 03:46:43;;;;;;;13.27;5.27;;;;;;;3.15;70.64;94800.97;5052248;28;20057;-60
2022/03/15 03:49:10;;;;;;;12.50;5.25;;;;;;;3.08;70.81;94805.41;5049184;28;20041;-57
2022/03/15 03:51:36;;;;;;;12.20;5.72;;;;;;;3.19;70.62;94807.28;5036037;28;20045;-50
2022/03/15 03:54:03;;;;;;;11.27;5.40;;;;;;;3.31;70.01;94808.34;5032247;28;20512;-50
2022/03/15 03:56:31;;;;;;;11.98;5.60;;;;;;;3.42;69.79;94814.88;5031447;28;20037;-48
2022/03/15 03:58:58;;;;;;;13.57;5.30;;;;;;;3.54;69.68;94820.22;5031698;28;20049;-48
2022/03/15 04:01:24;;;;;;;12.98;5.30;;;;;;;3.54;69.44;94822.13;5031325;28;20099;-49
2022/03/15 04:03:52;;;;;;;11.23;5.55;;;;;;;3.58;68.85;94823.00;5030832;28;20039;-55
2022/03/15 04:06:19;;;;;;;12.13;5.60;;;;;;;3.58;69.07;94829.25;5046648;28;20045;-51
2022/03/15 04:08:46;;;;;;;11.95;5.38;;;;;;;3.48;69.80;94823.50;5050805;28;20052;-57
2022/03/15 04:11:13;;;;;;;13.93;5.73;;;;;;;3.54;69.50;94828.38;5051013;28;20382;-51
2022/03/15 04:13:41;;;;;;;18.02;6.68;;;;;;;3.62;69.01;94829.31;5050258;28;20056;-51
2022/03/15 04:16:08;;;;;;;17.48;8.40;;;;;;;3.71;69.26;94818.31;5051469;28;20055;-49
2022/03/15 04:18:35;;;;;;;52.00;19.15;;;;;;;3.73;68.97;94824.97;5050680;28;20045;-60
2022/03/15 04:21:02;;;;;;;39.25;14.57;;;;;;;3.75;68.38;94819.19;5050484;28;20485;-51
2022/03/15 04:23:28;;;;;;;27.73;11.83;;;;;;;3.64;69.04;94813.47;5051286;28;20471;-59
2022/03/15 04:25:55;;;;;;;22.30;9.95;;;;;;;3.75;69.06;94817.25;5051584;28;20064;-47
2022/03/15 04:28:22;;;;;;;18.38;8.00;;;;;;;3.80;68.21;94808.84;5050635;28;20486;-51
2022/03/15 04:30:49;;;;;;;15.45;6.65;;;;;;;3.86;68.24;94814.78;5051090;28;20049;-49
2022/03/15 04:33:15;;;;;;;13.00;6.50;;;;;;;3.94;68.03;94805.72;5049908;28;20033;-54
2022/03/15 04:35:42;;;;;;;13.90;6.47;;;;;;;3.98;67.91;94803.88;5049959;28;20047;-53
2022/03/15 04:38:09;;;;;;;13.20;6.40;;;;;;;3.95;67.77;94809.97;5050674;28;20041;-47
2022/03/15 04:40:36;;;;;;;13.38;6.15;;;;;;;4.00;67.40;94812.44;5049809;28;20048;-51
2022/03/15 04:43:03;;;;;;;14.23;6.72;;;;;;;3.92;68.29;94809.91;5051049;28;20045;-50
2022/03/15 04:45:30;;;;;;;12.80;6.55;;;;;;;4.02;68.07;94814.78;5050363;28;20041;-54
2022/03/15 04:47:56;;;;;;;12.50;6.60;;;;;;;4.10;67.71;94807.59;5051103;28;20051;-51
2022/03/15 04:50:24;;;;;;;14.48;6.88;;;;;;;4.05;67.37;94800.53;5050288;28;20043;-62
2022/03/15 04:52:50;;;;;;;14.25;7.13;;;;;;;3.87;68.09;94807.47;5051058;28;20044;-48
2022/03/15 04:55:17;;;;;;;17.73;7.10;;;;;;;3.93;68.46;94804.13;5050234;28;20055;-50
2022/03/15 04:57:44;;;;;;;13.95;6.30;;;;;;;3.83;68.62;94803.88;5050924;28;20052;-55
2022/03/15 05:00:11;;;;;;;13.70;6.23;;;;;;;3.91;68.49;94806.41;5048700;28;20519;-51
2022/03/15 05:02:40;;;;;;;14.00;6.40;;;;;;;3.93;68.05;94800.63;5050628;28;20052;-56
2022/03/15 05:05:07;;;;;;;12.90;6.28;;;;;;;3.91;67.97;94800.97;5050657;28;20049;-50
2022/03/15 05:07:35;;;;;;;13.82;6.63;;;;;;;3.99;67.82;94793.78;5049710;28;20500;-51
2022/03/15 05:12:48;;;;;;;12.27;6.80;;;;;;;3.42;70.80;94803.19;5048485;28;20051;-56
2022/03/15 05:15:14;;;;;;;15.98;7.28;;;;;;;3.34;71.08;94804.94;5045510;28;20049;-52
2022/03/15 05:17:41;;;;;;;15.52;7.55;;;;;;;3.46;71.14;94804.91;5043368;28;20500;-54
2022/03/15 05:20:10;;;;;;;14.48;6.88;;;;;;;3.69;71.22;94794.22;5049544;28;20051;-54
2022/03/15 05:22:37;;;;;;;18.67;6.97;;;;;;;3.72;70.74;94811.72;5050568;28;20067;-57
2022/03/15 05:25:04;;;;;;;12.77;6.53;;;;;;;3.85;70.97;94815.16;5050172;28;20064;-54
2022/03/15 05:27:34;;;;;;;15.60;6.43;;;;;;;3.89;71.66;94807.91;5044568;28;20045;-61
2022/03/15 05:30:02;;;;;;;15.38;6.50;;;;;;;3.93;71.72;94806.06;5041582;28;20812;-59
2022/03/15 05:32:29;;;;;;;13.65;6.78;;;;;;;3.96;70.34;94800.72;5029912;28;20046;-54
2022/03/15 05:34:56;;;;;;;11.68;6.50;;;;;;;3.73;71.70;94805.16;5030125;28;20037;-60
2022/03/15 05:37:23;;;;;;;14.50;6.40;;;;;;;3.75;71.94;94806.41;5029624;28;20047;-51
2022/03/15 05:39:50;;;;;;;14.27;6.15;;;;;;;3.95;71.33;94807.28;5029904;28;20380;-48
2022/03/15 05:42:18;;;;;;;14.10;6.45;;;;;;;4.04;71.97;94811.72;5028176;28;20045;-54
2022/03/15 05:44:45;;;;;;;12.02;5.90;;;;;;;3.95;72.86;94809.19;5029657;28;20045;-61
2022/03/15 05:47:12;;;;;;;29.85;13.00;;;;;;;3.91;73.50;94816.47;5029558;28;20051;-62
2022/03/15 05:49:39;;;;;;;18.07;8.67;;;;;;;3.94;73.88;94805.72;5045166;28;20045;-56
2022/03/15 05:52:07;;;;;;;16.10;7.80;;;;;;;4.06;73.35;94812.16;5029768;28;20500;-54
2022/03/15 05:54:35;;;;;;;15.32;9.02;;;;;;;4.15;73.19;94810.84;5028958;28;20722;-51
2022/03/15 05:57:02;;;;;;;14.23;8.20;;;;;;;4.22;72.97;94804.00;5029422;28;20063;-58
2022/03/15 05:59:29;;;;;;;15.38;8.63;;;;;;;4.27;73.38;94817.34;5028822;28;20045;-52
2022/03/15 06:01:57;;;;;;;23.73;11.30;;;;;;;4.16;74.38;94819.78;5028255;28;20053;-51
2022/03/15 06:04:26;;;;;;;24.30;11.80;;;;;;;4.24;73.92;94810.66;5027837;28;20080;-50
2022/03/15 06:06:57;;;;;;;35.33;13.73;;;;;;;4.22;74.62;94810.22;5033139;28;20037;-51
2022/03/15 06:09:24;;;;;;;22.90;9.10;;;;;;;4.05;75.57;94816.81;5048884;28;20049;-59
2022/03/15 06:11:52;;;;;;;141.85;57.03;;;;;;;4.05;75.74;94810.59;5049271;28;20359;-47
2022/03/15 06:14:20;;;;;;;124.27;48.93;;;;;;;4.13;75.25;94812.34;5049005;28;20048;-50
2022/03/15 06:16:47;;;;;;;61.38;24.50;;;;;;;4.10;75.90;94811.09;5041229;28;20037;-51
2022/03/15 06:19:15;;;;;;;40.70;16.42;;;;;;;4.08;76.50;94807.94;5028887;28;20049;-56
2022/03/15 06:21:42;;;;;;;33.50;13.63;;;;;;;4.05;76.79;94807.88;5037324;28;20041;-58
2022/03/15 06:24:09;;;;;;;38.40;15.57;;;;;;;4.02;76.70;94798.50;5028795;28;20071;-49
2022/03/15 06:26:38;;;;;;;28.57;12.73;;;;;;;4.07;77.28;94797.47;5029228;28;20041;-57
2022/03/15 06:29:05;;;;;;;54.85;18.50;;;;;;;4.04;77.52;94793.50;5029033;28;20049;-55
2022/03/15 06:31:33;;;;;;;107.22;23.45;;;;;;;3.76;78.15;94799.03;5027533;28;20112;-57
2022/03/15 06:34:01;;;;;;;35.13;10.73;;;;;;;3.78;78.72;94783.19;5027950;28;20044;-58
2022/03/15 06:36:29;;;;;;;24.08;8.98;;;;;;;3.99;78.72;94791.06;5028558;28;20087;-48
2022/03/15 06:38:56;;;;;;;20.57;7.67;;;;;;;4.11;78.97;94796.41;5027474;28;20370;-50
2022/03/15 06:41:23;;;;;;;13.98;6.68;;;;;;;4.19;77.97;94798.13;5028498;28;20054;-48
2022/03/15 06:43:50;;;;;;;19.38;7.97;;;;;;;4.11;77.82;94793.69;5029182;28;20047;-60
2022/03/15 06:46:16;;;;;;;17.48;8.25;;;;;;;4.13;78.97;94799.53;5028477;28;20080;-53
2022/03/15 06:48:43;;;;;;;26.90;10.13;;;;;;;4.26;77.79;94794.78;5028897;28;20041;-60
2022/03/15 06:51:10;;;;;;;30.47;10.83;;;;;;;4.34;78.29;94798.47;5028588;28;20052;-56
2022/03/15 06:53:37;;;;;;;33.63;10.40;;;;;;;4.31;78.47;94799.97;5028971;28;20118;-49
2022/03/15 06:56:04;;;;;;;28.30;10.60;;;;;;;4.26;78.27;94802.16;5027604;28;20502;-48
2022/03/15 06:58:31;;;;;;;45.17;12.85;;;;;;;4.27;78.67;94798.31;5032523;28;20041;-61
2022/03/15 07:00:58;;;;;;;35.13;11.85;;;;;;;4.25;79.88;94801.38;5033973;28;20041;-55
2022/03/15 07:03:25;;;;;;;26.57;9.67;;;;;;;4.32;79.65;94804.25;5035102;28;20064;-59
2022/03/15 07:05:52;;;;;;;20.25;8.50;;;;;;;4.46;78.87;94808.44;5032575;28;20095;-50
2022/03/15 07:08:19;;;;;;;17.90;7.72;;;;;;;4.51;78.92;94811.66;5047647;28;20059;-48
2022/03/15 07:10:46;;;;;;;15.82;7.25;;;;;;;4.60;79.26;94816.91;5052884;28;20045;-47
2022/03/15 07:13:13;;;;;;;14.15;6.40;;;;;;;4.39;79.01;94814.50;5052223;28;20047;-58
2022/03/15 07:15:40;;;;;;;13.27;6.00;;;;;;;4.37;80.33;94808.63;5051428;28;20048;-51
2022/03/15 07:18:07;;;;;;;13.05;6.18;;;;;;;4.18;80.63;94818.28;5052533;28;20055;-59
2022/03/15 07:20:34;;;;;;;16.80;7.07;;;;;;;4.30;81.03;94800.31;5030529;28;21593;-57
2022/03/15 07:23:02;;;;;;;16.08;6.70;;;;;;;4.15;81.59;94799.19;5048022;28;20436;-47
2022/03/15 07:25:29;;;;;;;16.38;7.18;;;;;;;4.16;81.63;94790.69;5052336;28;20044;-49
2022/03/15 07:27:57;;;;;;;13.97;6.93;;;;;;;4.21;82.01;94795.06;5052492;28;20306;-48
2022/03/15 07:30:23;;;;;;;15.88;6.93;;;;;;;4.34;81.55;94790.31;5051788;28;20068;-52
2022/03/15 07:32:50;;;;;;;15.10;6.53;;;;;;;4.48;81.62;94792.56;5052439;28;20044;-56
2022/03/15 07:35:18;;;;;;;13.32;6.00;;;;;;;4.66;80.94;94791.00;5051972;28;20040;-54
2022/03/15 07:37:53;;;;;;;11.27;5.47;;;;;;;4.55;81.10;94793.50;5052445;28;20037;-58
2022/03/15 07:40:20;;;;;;;14.83;6.03;;;;;;;4.34;81.61;94793.03;5050747;28;20056;-51
2022/03/15 07:42:48;;;;;;;15.30;6.45;;;;;;;4.27;83.45;94785.50;5052423;28;20047;-48
2022/03/15 07:45:15;;;;;;;13.50;6.93;;;;;;;4.31;82.30;94788.31;5052080;28;20393;-52
2022/03/15 07:47:42;;;;;;;15.95;7.32;;;;;;;4.14;83.85;94776.66;5052201;28;20047;-63
2022/03/15 07:50:09;;;;;;;13.85;6.55;;;;;;;4.00;84.39;94777.16;5050294;28;20051;-57
2022/03/15 07:52:36;;;;;;;17.63;8.10;;;;;;;4.08;85.34;94763.72;5052427;28;20052;-50
2022/03/15 07:55:03;;;;;;;18.38;7.95;;;;;;;4.44;84.55;94772.66;5052090;28;20045;-57
2022/03/15 07:57:29;;;;;;;15.90;7.28;;;;;;;4.63;82.98;94774.63;5051753;28;20372;-50
2022/03/15 07:59:56;;;;;;;13.73;8.10;;;;;;;4.78;83.08;94769.13;5051859;28;20055;-50
2022/03/15 08:02:23;;;;;;;19.40;8.60;;;;;;;4.78;81.95;94769.13;5051469;28;20129;-57
2022/03/15 08:04:50;;;;;;;15.63;6.93;;;;;;;4.72;82.36;94772.50;5051979;28;20457;-53
2022/03/15 08:07:16;;;;;;;15.25;7.93;;;;;;;4.24;85.41;94766.41;5050806;28;20045;-53
2022/03/15 08:09:43;;;;;;;15.50;7.43;;;;;;;4.00;86.22;94752.69;5049879;28;20071;-50
2022/03/15 08:12:10;;;;;;;20.83;9.10;;;;;;;3.91;87.20;94751.31;5050055;28;20053;-48
2022/03/15 08:14:37;;;;;;;19.60;9.75;;;;;;;4.40;86.59;94745.41;5050536;28;20045;-51
2022/03/15 08:17:03;;;;;;;23.13;9.80;;;;;;;4.76;85.07;94738.00;5051679;28;20040;-59
2022/03/15 08:19:30;;;;;;;17.55;8.70;;;;;;;4.96;84.72;94747.72;5051151;28;20040;-53
2022/03/15 08:22:01;;;;;;;14.70;7.57;;;;;;;5.11;83.40;94746.06;5051629;28;20090;-52
2022/03/15 08:24:28;;;;;;;15.55;6.82;;;;;;;5.04;83.08;94742.44;5051120;28;20054;-55
2022/03/15 08:26:55;;;;;;;19.35;9.07;;;;;;;4.91;84.17;94736.34;5051716;28;20047;-63
2022/03/15 08:29:22;;;;;;;18.43;9.80;;;;;;;4.65;85.71;94743.22;5050935;28;20041;-51
2022/03/15 08:31:49;;;;;;;19.90;9.40;;;;;;;4.91;85.99;94737.13;5051252;28;20033;-49
2022/03/15 08:34:16;;;;;;;22.13;11.50;;;;;;;4.86;85.08;94726.53;5050866;28;20075;-54
2022/03/15 08:36:44;;;;;;;20.27;9.93;;;;;;;4.87;85.77;94721.88;5051373;28;20037;-51
2022/03/15 08:39:10;;;;;;;19.98;10.35;;;;;;;4.92;85.41;94714.22;5062941;28;20053;-60
2022/03/15 08:41:39;;;;;;;19.23;9.40;;;;;;;4.84;85.75;94723.41;5051293;28;20043;-58
2022/03/15 08:44:06;;;;;;;16.35;9.55;;;;;;;5.15;85.55;94719.72;5049846;28;20048;-57
2022/03/15 08:46:33;;;;;;;18.10;9.90;;;;;;;5.05;84.47;94719.50;5050334;28;20040;-52
2022/03/15 08:49:01;;;;;;;21.27;10.05;;;;;;;5.15;84.62;94724.34;5051197;28;20033;-47
2022/03/15 08:51:27;;;;;;;22.75;10.25;;;;;;;5.15;84.62;94711.56;5050392;28;20041;-51
2022/03/15 08:53:54;;;;;;;18.30;10.67;;;;;;;5.10;85.68;94713.78;5035642;28;20045;-61
2022/03/15 08:56:21;;;;;;;21.98;12.40;;;;;;;5.42;84.76;94711.63;5048242;28;20041;-55
2022/03/15 08:58:47;;;;;;;19.88;12.23;;;;;;;5.27;84.99;94707.06;5050985;28;20041;-54
2022/03/15 09:01:15;;;;;;;20.50;10.05;;;;;;;5.51;84.44;94697.75;5050333;28;20438;-57
2022/03/15 09:03:59;;;;;;;15.57;8.43;;;;;;;5.56;85.17;94698.25;5049803;28;20045;-50
2022/03/15 09:06:26;;;;;;;14.73;8.17;;;;;;;5.95;83.96;94695.38;5050170;28;20110;-58
2022/03/15 09:08:53;;;;;;;16.60;7.60;;;;;;;6.08;83.64;94695.19;5030954;28;20477;-48
2022/03/15 09:11:20;;;;;;;15.02;7.88;;;;;;;6.38;82.81;94693.25;5030323;28;20045;-55
2022/03/15 09:13:46;;;;;;;19.45;9.27;;;;;;;6.19;82.06;94691.44;5030744;28;20038;-53
2022/03/15 09:16:13;;;;;;;14.20;8.10;;;;;;;6.04;83.04;94697.03;5032061;28;20055;-48
2022/03/15 09:18:40;;;;;;;18.30;8.90;;;;;;;6.04;84.10;94700.56;5050184;28;20041;-54
2022/03/15 09:21:07;;;;;;;16.63;8.65;;;;;;;5.93;84.18;94692.19;5050550;28;20178;-50
2022/03/15 09:23:34;;;;;;;18.65;10.27;;;;;;;5.99;83.79;94688.03;5050010;28;20043;-59
2022/03/15 09:26:01;;;;;;;15.27;8.80;;;;;;;5.75;84.55;94693.88;5050177;28;20041;-53
2022/03/15 09:28:30;;;;;;;14.55;7.78;;;;;;;5.58;85.18;94689.72;5048555;28;20040;-57
2022/03/15 09:30:58;;;;;;;14.73;7.77;;;;;;;5.46;85.76;94682.53;5050185;28;20075;-56
2022/03/15 09:33:25;;;;;;;15.70;8.25;;;;;;;5.45;86.23;94680.16;5049577;28;20049;-57
2022/03/15 09:35:52;;;;;;;13.40;8.10;;;;;;;5.58;85.96;94667.94;5049980;28;20049;-51
2022/03/15 09:38:21;;;;;;;14.88;7.50;;;;;;;5.48;86.19;94672.06;5049442;28;20044;-49
2022/03/15 09:40:51;;;;;;;16.00;7.55;;;;;;;5.55;86.85;94669.47;5050023;28;20048;-47
2022/03/15 09:43:22;;;;;;;14.20;8.03;;;;;;;5.59;86.56;94653.16;5049584;28;20048;-49
2022/03/15 09:45:50;;;;;;;12.38;7.13;;;;;;;5.52;86.76;94655.78;5050061;28;20043;-48
2022/03/15 09:48:39;;;;;;;16.80;8.73;;;;;;;5.73;86.57;94649.88;5049206;28;20283;-59
2022/03/15 09:51:13;;;;;;;15.27;7.38;;;;;;;5.96;86.07;94644.41;5049609;28;20057;-52
2022/03/15 09:53:41;;;;;;;11.90;7.38;;;;;;;6.15;85.04;94640.75;5049175;28;21013;-51
2022/03/15 09:56:08;;;;;;;10.97;6.87;;;;;;;6.04;84.81;94645.28;5049826;28;20045;-52
2022/03/15 09:58:35;;;;;;;11.05;6.20;;;;;;;5.84;85.23;94636.44;5044847;28;21756;-50
2022/03/15 10:01:02;;;;;;;9.80;6.07;;;;;;;5.68;86.59;94631.91;5040969;28;20052;-59
2022/03/15 10:03:29;;;;;;;12.23;6.20;;;;;;;5.83;86.05;94632.91;5029252;28;20057;-62
2022/03/15 10:05:56;;;;;;;12.10;6.20;;;;;;;5.87;85.92;94622.84;5029959;28;20084;-52
2022/03/15 10:08:23;;;;;;;11.47;6.77;;;;;;;5.94;85.45;94627.63;5045127;28;20033;-56
2022/03/15 10:10:52;;;;;;;10.68;6.35;;;;;;;5.71;86.56;94616.78;5048381;28;20047;-48
2022/03/15 10:13:20;;;;;;;11.18;6.50;;;;;;;5.56;87.52;94613.84;5049296;28;20049;-61
2022/03/15 10:15:52;;;;;;;12.18;6.72;;;;;;;5.76;86.27;94617.25;5049697;28;20490;-53
2022/03/15 10:18:20;;;;;;;12.55;7.40;;;;;;;5.83;85.88;94621.22;5048920;28;20047;-57
2022/03/15 10:20:48;;;;;;;18.73;8.73;;;;;;;5.78;86.03;94614.94;5049706;28;20048;-60
2022/03/15 10:23:16;;;;;;;18.00;9.40;;;;;;;5.61;87.38;94607.28;5049297;28;20052;-52
2022/03/15 10:25:46;;;;;;;21.25;10.90;;;;;;;5.73;86.74;94609.03;5048068;28;20055;-54
2022/03/15 10:28:14;;;;;;;26.88;11.43;;;;;;;5.95;86.13;94619.09;5048777;28;20059;-52
2022/03/15 10:30:45;;;;;;;28.85;11.25;;;;;;;5.94;86.69;94609.34;5048397;28;20037;-52
2022/03/15 10:33:13;;;;;;;30.93;15.30;;;;;;;6.29;85.84;94602.78;5048875;28;20118;-54
2022/03/15 10:35:45;;;;;;;28.38;16.88;;;;;;;6.36;85.14;94600.16;5049186;28;20053;-51
2022/03/15 10:38:12;;;;;;;21.08;11.43;;;;;;;6.26;84.97;94592.63;5047947;28;20055;-47
2022/03/15 10:40:45;;;;;;;21.02;10.32;;;;;;;6.37;84.33;94592.75;5049371;28;20485;-51
2022/03/15 10:43:24;;;;;;;20.88;10.85;;;;;;;6.46;84.31;94589.72;5048842;28;20049;-61
2022/03/15 10:45:57;;;;;;;34.90;12.73;;;;;;;6.45;84.50;94594.41;5049353;28;20040;-57
2022/03/15 10:48:27;;;;;;;22.65;9.48;;;;;;;6.49;84.42;94584.31;5048754;28;20066;-50
2022/03/15 10:50:59;;;;;;;24.60;9.50;;;;;;;6.51;83.82;94586.69;5049185;28;20064;-48
2022/03/15 10:53:35;;;;;;;22.75;10.38;;;;;;;6.46;84.83;94565.19;5048591;28;20156;-59
2022/03/15 10:56:19;;;;;;;20.17;9.40;;;;;;;6.55;84.26;94571.91;5049262;28;20052;-51
2022/03/15 10:59:05;;;;;;;21.83;10.30;;;;;;;6.68;83.64;94569.72;5045340;28;20386;-53
2022/03/15 11:01:39;;;;;;;17.23;9.25;;;;;;;6.63;83.07;94553.69;5040081;28;20046;-50
2022/03/15 11:04:08;;;;;;;15.07;9.05;;;;;;;6.66;83.24;94557.59;5029177;28;20049;-58
2022/03/15 11:06:44;;;;;;;18.70;10.40;;;;;;;6.54;83.75;94559.47;5029186;28;22480;-60
2022/03/15 11:09:19;;;;;;;18.77;10.38;;;;;;;6.53;84.02;94551.66;5048457;28;20055;-53
2022/03/15 11:11:52;;;;;;;19.43;11.57;;;;;;;6.42;84.76;94556.19;5048962;28;20029;-50
2022/03/15 11:14:40;;;;;;;25.17;12.18;;;;;;;6.06;86.76;94553.84;5048470;28;20412;-53
2022/03/15 11:17:15;;;;;;;21.40;11.52;;;;;;;5.98;87.15;94554.94;5048835;28;20057;-55
2022/03/15 11:19:53;;;;;;;18.80;10.73;;;;;;;6.18;86.26;94547.38;5047963;28;20694;-60
2022/03/15 11:22:23;;;;;;;20.23;11.25;;;;;;;6.04;86.76;94541.72;5048256;28;20166;-56
2022/03/15 11:25:04;;;;;;;20.77;11.63;;;;;;;6.15;87.25;94539.94;5048666;28;20047;-50
2022/03/15 11:27:33;;;;;;;19.90;10.50;;;;;;;6.04;86.54;94528.91;5048265;28;20041;-50
2022/03/15 11:30:06;;;;;;;20.83;11.65;;;;;;;6.11;87.14;94526.25;5048759;28;20053;-58
2022/03/15 11:32:34;;;;;;;23.58;11.98;;;;;;;5.99;87.61;94526.50;5048350;28;20047;-56
2022/03/15 11:35:02;;;;;;;19.40;11.30;;;;;;;6.24;87.57;94531.47;5048822;28;20056;-64
2022/03/15 11:37:30;;;;;;;18.53;10.40;;;;;;;6.34;86.71;94534.31;5048261;28;20394;-58